Bolckow, MO (64427)

6:18 AM CDT on September 19, 2019 (GMT -0500)
Palmer Farms | | Change Station
Active Advisory: Flood Warning

Elev 1056 ft 40.15 °N, 94.86 °W | Updated 3 minutes ago

Partly Cloudy
Partly Cloudy
69.1 °F
Feels Like 69.1 °F
N
3
Wind Variable Wind from NE
Gusts 5.0 mph

Today
High -- | Low -- °F
--% Chance of Precip.
Yesterday
High -- | Low -- °F
Precip. -- in
Pressure 29.94 in
Visibility 8.0 miles
Clouds Clear
Dew Point 62 °F
Humidity 78%
Rainfall 0.00 in
Snow Depth Not available.
7:03 AM 7:21 PM
Waning Gibbous, 76% visible
METAR KSTJ 191053Z AUTO 00000KT 8SM CLR 20/19 A2996 RMK AO2 SLP138 T02000194
Pressure 29.94 in
Visibility 8.0 miles
Clouds Clear
Dew Point 62 °F
Humidity 78%
Rainfall 0.00 in
Snow Depth Not available.
7:03 AM 7:21 PM
Waning Gibbous, 76% visible
METAR KSTJ 191053Z AUTO 00000KT 8SM CLR 20/19 A2996 RMK AO2 SLP138 T02000194

Get Your Daily Forecast Email!

Thanks for signing up!

Be on the lookout for a verification email in your inbox.

You'll start receiving severe weather alerts in your inbox..

×

10-Day Weather Forecast

Almanac

Astronomy

Sep. 19, 2019 Rise Set
Actual Time
Civil Twilight
Nautical Twilight
Astronomical Twilight
Moon
Length of Visible Light
Length of Day
Tomorrow will be .
, % of the Moon is Illuminated

Today's Extremes

State Highs State Lows

Community

WunderPhotos

Category 6

Welcome to Category 6. This is the collective home for Weather Underground's featured writeups by Dr. Jeff Masters (right), Bob Henson (left), Chris Burt, and other regular contributors.

Nearby

Air Quality

  Air Quality AQ Index Pollutant
Not available.

Snow Depth

Station Depth Elevation

Earthquake Activity

City Distance Mag. Time & Date
Minimum magnitude displayed is 2.5.

Coastal Water Temperatures

Place Temperature

Stations

Nearby Weather Stations

Station Location Temp. Windchill Dew Point Humidity Wind Precip. Elev Updated Type
                   

Watches & Warnings

Flood Warning
Issued: 9:23 PM CDT Sep. 18, 2019 – National Weather Service

The Flood Warning continues for
the Missouri River at St Joseph.
* Until further notice.
* At 8:30 PM Wednesday the stage was 18.4 feet.
* Flood stage is 17.0 feet.
* Minor flooding is occurring and moderate flooding is forecast.
* Forecast... the river will continue rising to near 21.2 feet by
Monday morning then begin falling.
* At 21.0 feet... Riverfront Park in St. Joseph begins to flood.
* At 19.0 feet... backwater from the Missouri River floods property
along the Nodaway river at Nodaway, Missouri.
* At 17.0 feet... lowland flooding upstream and downstream from St.
Joseph occurs.


                       Latest
location fs stage day/time forecast

Missouri River
St Joseph 17 18.4 Wed 08 PM 21.2 Monday morning


lat... Lon 3991 9501 3990 9489 3975 9483 3964 9488 3970 9505